sensor_id;sensor_type;location;lat;lon;timestamp;P1;durP1;ratioP1;P2;durP2;ratioP2
35530;SDS011;21637;53.352;-6.356;2023-05-10T00:01:58;9.18;;;1.98;;
35530;SDS011;21637;53.352;-6.356;2023-05-10T00:04:23;7.45;;;2.10;;
35530;SDS011;21637;53.352;-6.356;2023-05-10T00:06:52;10.75;;;2.20;;
35530;SDS011;21637;53.352;-6.356;2023-05-10T00:09:18;8.90;;;2.25;;
35530;SDS011;21637;53.352;-6.356;2023-05-10T00:11:44;9.13;;;2.70;;
35530;SDS011;21637;53.352;-6.356;2023-05-10T00:14:11;13.68;;;2.55;;
35530;SDS011;21637;53.352;-6.356;2023-05-10T00:16:37;7.10;;;2.40;;
35530;SDS011;21637;53.352;-6.356;2023-05-10T00:19:02;6.32;;;2.10;;
35530;SDS011;21637;53.352;-6.356;2023-05-10T00:21:28;6.93;;;2.13;;
35530;SDS011;21637;53.352;-6.356;2023-05-10T00:23:54;7.57;;;2.10;;
35530;SDS011;21637;53.352;-6.356;2023-05-10T00:26:20;8.32;;;2.35;;
35530;SDS011;21637;53.352;-6.356;2023-05-10T00:28:46;7.88;;;2.20;;
35530;SDS011;21637;53.352;-6.356;2023-05-10T00:31:12;9.43;;;2.60;;
35530;SDS011;21637;53.352;-6.356;2023-05-10T00:33:37;13.30;;;2.90;;
35530;SDS011;21637;53.352;-6.356;2023-05-10T00:36:03;10.63;;;2.03;;
35530;SDS011;21637;53.352;-6.356;2023-05-10T00:38:32;8.38;;;2.50;;
35530;SDS011;21637;53.352;-6.356;2023-05-10T00:40:58;9.75;;;2.90;;
35530;SDS011;21637;53.352;-6.356;2023-05-10T00:43:24;9.73;;;2.80;;
35530;SDS011;21637;53.352;-6.356;2023-05-10T00:45:49;7.93;;;2.47;;
35530;SDS011;21637;53.352;-6.356;2023-05-10T00:48:15;6.80;;;2.50;;
35530;SDS011;21637;53.352;-6.356;2023-05-10T00:50:41;9.43;;;2.90;;
35530;SDS011;21637;53.352;-6.356;2023-05-10T00:53:07;9.55;;;2.50;;
35530;SDS011;21637;53.352;-6.356;2023-05-10T00:55:33;8.93;;;2.50;;
35530;SDS011;21637;53.352;-6.356;2023-05-10T00:57:59;7.78;;;2.45;;
35530;SDS011;21637;53.352;-6.356;2023-05-10T01:00:26;8.15;;;2.58;;
35530;SDS011;21637;53.352;-6.356;2023-05-10T01:02:53;12.23;;;2.60;;
35530;SDS011;21637;53.352;-6.356;2023-05-10T01:05:19;6.40;;;2.38;;
35530;SDS011;21637;53.352;-6.356;2023-05-10T01:07:45;8.00;;;2.60;;
35530;SDS011;21637;53.352;-6.356;2023-05-10T01:10:10;8.77;;;2.50;;
35530;SDS011;21637;53.352;-6.356;2023-05-10T01:12:37;13.27;;;2.83;;
35530;SDS011;21637;53.352;-6.356;2023-05-10T01:15:06;8.20;;;2.65;;
35530;SDS011;21637;53.352;-6.356;2023-05-10T01:17:33;7.82;;;2.60;;
35530;SDS011;21637;53.352;-6.356;2023-05-10T01:20:01;8.45;;;2.08;;
35530;SDS011;21637;53.352;-6.356;2023-05-10T01:22:39;9.05;;;2.05;;
35530;SDS011;21637;53.352;-6.356;2023-05-10T01:36:20;8.50;;;1.88;;
35530;SDS011;21637;53.352;-6.356;2023-05-10T01:41:39;9.93;;;2.05;;
35530;SDS011;21637;53.352;-6.356;2023-05-10T01:46:38;10.32;;;2.22;;
35530;SDS011;21637;53.352;-6.356;2023-05-10T01:49:09;5.70;;;1.88;;
35530;SDS011;21637;53.352;-6.356;2023-05-10T01:51:53;9.05;;;2.17;;
35530;SDS011;21637;53.352;-6.356;2023-05-10T01:54:21;6.20;;;2.10;;
35530;SDS011;21637;53.352;-6.356;2023-05-10T01:56:50;7.07;;;1.73;;
35530;SDS011;21637;53.352;-6.356;2023-05-10T01:59:22;8.80;;;1.77;;
35530;SDS011;21637;53.352;-6.356;2023-05-10T02:01:53;2.92;;;1.60;;
35530;SDS011;21637;53.352;-6.356;2023-05-10T02:04:20;6.07;;;2.92;;
35530;SDS011;21637;53.352;-6.356;2023-05-10T02:06:48;10.27;;;2.25;;
35530;SDS011;21637;53.352;-6.356;2023-05-10T02:09:16;6.65;;;2.15;;
35530;SDS011;21637;53.352;-6.356;2023-05-10T02:11:43;7.93;;;2.25;;
35530;SDS011;21637;53.352;-6.356;2023-05-10T02:14:09;7.22;;;1.83;;
35530;SDS011;21637;53.352;-6.356;2023-05-10T02:16:36;6.95;;;2.17;;
35530;SDS011;21637;53.352;-6.356;2023-05-10T02:19:04;8.70;;;2.10;;
35530;SDS011;21637;53.352;-6.356;2023-05-10T02:21:31;5.82;;;1.88;;
35530;SDS011;21637;53.352;-6.356;2023-05-10T02:23:58;9.32;;;1.88;;
35530;SDS011;21637;53.352;-6.356;2023-05-10T02:26:26;8.77;;;2.13;;
35530;SDS011;21637;53.352;-6.356;2023-05-10T02:28:53;8.02;;;1.83;;
35530;SDS011;21637;53.352;-6.356;2023-05-10T02:31:21;6.05;;;2.17;;
35530;SDS011;21637;53.352;-6.356;2023-05-10T02:33:48;9.10;;;2.10;;
35530;SDS011;21637;53.352;-6.356;2023-05-10T02:36:15;8.73;;;1.92;;
35530;SDS011;21637;53.352;-6.356;2023-05-10T02:38:42;4.50;;;1.70;;
35530;SDS011;21637;53.352;-6.356;2023-05-10T02:41:11;7.15;;;1.80;;
35530;SDS011;21637;53.352;-6.356;2023-05-10T02:43:38;7.25;;;1.73;;
35530;SDS011;21637;53.352;-6.356;2023-05-10T02:46:05;9.93;;;1.70;;
35530;SDS011;21637;53.352;-6.356;2023-05-10T02:48:31;6.68;;;2.10;;
35530;SDS011;21637;53.352;-6.356;2023-05-10T02:51:00;7.88;;;1.80;;
35530;SDS011;21637;53.352;-6.356;2023-05-10T02:53:31;6.38;;;1.73;;
35530;SDS011;21637;53.352;-6.356;2023-05-10T02:55:59;6.20;;;1.60;;
35530;SDS011;21637;53.352;-6.356;2023-05-10T02:58:29;7.03;;;2.00;;
35530;SDS011;21637;53.352;-6.356;2023-05-10T03:00:54;10.18;;;2.05;;
35530;SDS011;21637;53.352;-6.356;2023-05-10T03:03:20;9.60;;;2.22;;
35530;SDS011;21637;53.352;-6.356;2023-05-10T03:05:46;5.40;;;1.98;;
35530;SDS011;21637;53.352;-6.356;2023-05-10T03:08:12;6.93;;;1.88;;
35530;SDS011;21637;53.352;-6.356;2023-05-10T03:10:39;5.35;;;1.67;;
35530;SDS011;21637;53.352;-6.356;2023-05-10T03:13:16;7.70;;;2.03;;
35530;SDS011;21637;53.352;-6.356;2023-05-10T03:18:59;10.02;;;2.35;;
35530;SDS011;21637;53.352;-6.356;2023-05-10T03:21:32;8.52;;;2.05;;
35530;SDS011;21637;53.352;-6.356;2023-05-10T03:24:08;11.48;;;2.40;;
35530;SDS011;21637;53.352;-6.356;2023-05-10T03:26:37;9.00;;;2.05;;
35530;SDS011;21637;53.352;-6.356;2023-05-10T03:29:04;7.10;;;1.95;;
35530;SDS011;21637;53.352;-6.356;2023-05-10T03:31:31;9.57;;;2.15;;
35530;SDS011;21637;53.352;-6.356;2023-05-10T03:33:57;11.73;;;1.85;;
35530;SDS011;21637;53.352;-6.356;2023-05-10T03:36:23;9.30;;;1.92;;
35530;SDS011;21637;53.352;-6.356;2023-05-10T03:38:49;7.10;;;1.67;;
35530;SDS011;21637;53.352;-6.356;2023-05-10T03:41:15;6.72;;;1.50;;
35530;SDS011;21637;53.352;-6.356;2023-05-10T03:43:40;8.48;;;1.80;;
35530;SDS011;21637;53.352;-6.356;2023-05-10T03:46:06;6.82;;;2.05;;
35530;SDS011;21637;53.352;-6.356;2023-05-10T03:48:32;9.07;;;1.90;;
35530;SDS011;21637;53.352;-6.356;2023-05-10T03:50:58;11.00;;;2.30;;
35530;SDS011;21637;53.352;-6.356;2023-05-10T03:53:24;6.43;;;1.73;;
35530;SDS011;21637;53.352;-6.356;2023-05-10T03:55:49;10.32;;;2.28;;
35530;SDS011;21637;53.352;-6.356;2023-05-10T03:58:15;8.93;;;2.30;;
35530;SDS011;21637;53.352;-6.356;2023-05-10T04:00:41;14.38;;;1.90;;
35530;SDS011;21637;53.352;-6.356;2023-05-10T04:03:10;9.43;;;2.15;;
35530;SDS011;21637;53.352;-6.356;2023-05-10T04:05:36;11.70;;;2.15;;
35530;SDS011;21637;53.352;-6.356;2023-05-10T04:08:02;5.63;;;1.92;;
35530;SDS011;21637;53.352;-6.356;2023-05-10T04:10:28;9.00;;;2.17;;
35530;SDS011;21637;53.352;-6.356;2023-05-10T04:12:54;10.85;;;2.55;;
35530;SDS011;21637;53.352;-6.356;2023-05-10T04:15:20;7.65;;;1.98;;
35530;SDS011;21637;53.352;-6.356;2023-05-10T04:17:46;9.63;;;2.47;;
35530;SDS011;21637;53.352;-6.356;2023-05-10T04:20:12;13.60;;;2.47;;
35530;SDS011;21637;53.352;-6.356;2023-05-10T04:22:38;8.88;;;1.88;;
35530;SDS011;21637;53.352;-6.356;2023-05-10T04:25:04;7.95;;;1.98;;
35530;SDS011;21637;53.352;-6.356;2023-05-10T04:27:31;10.73;;;2.17;;
35530;SDS011;21637;53.352;-6.356;2023-05-10T04:29:57;10.35;;;2.28;;
35530;SDS011;21637;53.352;-6.356;2023-05-10T04:32:22;7.57;;;2.30;;
35530;SDS011;21637;53.352;-6.356;2023-05-10T04:34:48;6.57;;;1.88;;
35530;SDS011;21637;53.352;-6.356;2023-05-10T04:37:16;10.68;;;2.03;;
35530;SDS011;21637;53.352;-6.356;2023-05-10T04:39:42;11.57;;;2.00;;
35530;SDS011;21637;53.352;-6.356;2023-05-10T04:42:07;6.60;;;1.90;;
35530;SDS011;21637;53.352;-6.356;2023-05-10T04:44:33;8.60;;;1.80;;
35530;SDS011;21637;53.352;-6.356;2023-05-10T04:46:59;7.80;;;1.80;;
35530;SDS011;21637;53.352;-6.356;2023-05-10T04:49:27;7.78;;;2.03;;
35530;SDS011;21637;53.352;-6.356;2023-05-10T04:51:53;6.25;;;1.77;;
35530;SDS011;21637;53.352;-6.356;2023-05-10T04:54:18;14.15;;;2.15;;
35530;SDS011;21637;53.352;-6.356;2023-05-10T04:56:44;9.15;;;1.80;;
35530;SDS011;21637;53.352;-6.356;2023-05-10T04:59:10;9.68;;;1.98;;
35530;SDS011;21637;53.352;-6.356;2023-05-10T05:01:36;7.95;;;2.55;;
35530;SDS011;21637;53.352;-6.356;2023-05-10T05:04:01;7.45;;;2.10;;
35530;SDS011;21637;53.352;-6.356;2023-05-10T05:06:27;10.10;;;1.90;;
35530;SDS011;21637;53.352;-6.356;2023-05-10T05:08:53;9.20;;;1.52;;
35530;SDS011;21637;53.352;-6.356;2023-05-10T05:11:19;7.05;;;1.80;;
35530;SDS011;21637;53.352;-6.356;2023-05-10T05:13:46;7.63;;;1.50;;
35530;SDS011;21637;53.352;-6.356;2023-05-10T05:16:11;6.32;;;1.98;;
35530;SDS011;21637;53.352;-6.356;2023-05-10T05:18:37;5.22;;;1.65;;
35530;SDS011;21637;53.352;-6.356;2023-05-10T05:21:03;7.93;;;1.65;;
35530;SDS011;21637;53.352;-6.356;2023-05-10T05:23:38;9.02;;;1.90;;
35530;SDS011;21637;53.352;-6.356;2023-05-10T05:26:04;7.07;;;1.83;;
35530;SDS011;21637;53.352;-6.356;2023-05-10T05:28:30;8.73;;;1.65;;
35530;SDS011;21637;53.352;-6.356;2023-05-10T05:30:58;7.93;;;1.95;;
35530;SDS011;21637;53.352;-6.356;2023-05-10T05:33:24;5.22;;;1.30;;
35530;SDS011;21637;53.352;-6.356;2023-05-10T05:35:50;11.43;;;2.15;;
35530;SDS011;21637;53.352;-6.356;2023-05-10T05:38:16;11.95;;;1.80;;
35530;SDS011;21637;53.352;-6.356;2023-05-10T05:40:42;6.30;;;1.30;;
35530;SDS011;21637;53.352;-6.356;2023-05-10T05:43:08;6.05;;;1.65;;
35530;SDS011;21637;53.352;-6.356;2023-05-10T05:45:34;8.63;;;2.08;;
35530;SDS011;21637;53.352;-6.356;2023-05-10T05:47:59;5.10;;;1.55;;
35530;SDS011;21637;53.352;-6.356;2023-05-10T05:50:25;6.47;;;1.45;;
35530;SDS011;21637;53.352;-6.356;2023-05-10T05:52:51;4.45;;;1.30;;
35530;SDS011;21637;53.352;-6.356;2023-05-10T05:55:17;5.60;;;1.23;;
35530;SDS011;21637;53.352;-6.356;2023-05-10T05:57:42;3.72;;;1.27;;
35530;SDS011;21637;53.352;-6.356;2023-05-10T06:00:08;6.40;;;1.52;;
35530;SDS011;21637;53.352;-6.356;2023-05-10T06:02:34;5.18;;;1.35;;
35530;SDS011;21637;53.352;-6.356;2023-05-10T06:05:00;6.95;;;1.40;;
35530;SDS011;21637;53.352;-6.356;2023-05-10T06:07:25;4.75;;;1.75;;
35530;SDS011;21637;53.352;-6.356;2023-05-10T06:09:52;4.55;;;2.13;;
35530;SDS011;21637;53.352;-6.356;2023-05-10T06:12:17;6.20;;;1.65;;
35530;SDS011;21637;53.352;-6.356;2023-05-10T06:14:43;6.05;;;1.60;;
35530;SDS011;21637;53.352;-6.356;2023-05-10T06:17:09;4.72;;;1.52;;
35530;SDS011;21637;53.352;-6.356;2023-05-10T06:19:34;4.97;;;1.40;;
35530;SDS011;21637;53.352;-6.356;2023-05-10T06:22:01;2.13;;;0.93;;
35530;SDS011;21637;53.352;-6.356;2023-05-10T06:24:27;4.10;;;1.48;;
35530;SDS011;21637;53.352;-6.356;2023-05-10T06:26:53;7.97;;;1.35;;
35530;SDS011;21637;53.352;-6.356;2023-05-10T06:29:19;4.82;;;1.30;;
35530;SDS011;21637;53.352;-6.356;2023-05-10T06:31:44;3.70;;;1.15;;
35530;SDS011;21637;53.352;-6.356;2023-05-10T06:34:10;5.55;;;1.20;;
35530;SDS011;21637;53.352;-6.356;2023-05-10T06:36:36;5.22;;;1.77;;
35530;SDS011;21637;53.352;-6.356;2023-05-10T06:39:02;5.15;;;1.15;;
35530;SDS011;21637;53.352;-6.356;2023-05-10T06:41:28;5.75;;;1.13;;
35530;SDS011;21637;53.352;-6.356;2023-05-10T06:43:53;6.18;;;1.00;;
35530;SDS011;21637;53.352;-6.356;2023-05-10T06:46:19;9.85;;;1.58;;
35530;SDS011;21637;53.352;-6.356;2023-05-10T06:48:45;3.33;;;1.23;;
35530;SDS011;21637;53.352;-6.356;2023-05-10T06:51:11;3.03;;;1.02;;
35530;SDS011;21637;53.352;-6.356;2023-05-10T06:53:36;5.55;;;0.90;;
35530;SDS011;21637;53.352;-6.356;2023-05-10T06:56:02;5.55;;;1.20;;
35530;SDS011;21637;53.352;-6.356;2023-05-10T06:58:28;2.00;;;0.82;;
35530;SDS011;21637;53.352;-6.356;2023-05-10T07:00:54;3.97;;;0.98;;
35530;SDS011;21637;53.352;-6.356;2023-05-10T07:03:19;6.60;;;1.10;;
35530;SDS011;21637;53.352;-6.356;2023-05-10T07:05:45;3.42;;;1.20;;
35530;SDS011;21637;53.352;-6.356;2023-05-10T07:08:11;6.38;;;1.20;;
35530;SDS011;21637;53.352;-6.356;2023-05-10T07:10:36;5.13;;;1.20;;
35530;SDS011;21637;53.352;-6.356;2023-05-10T07:13:02;5.93;;;1.20;;
35530;SDS011;21637;53.352;-6.356;2023-05-10T07:15:28;3.85;;;1.35;;
35530;SDS011;21637;53.352;-6.356;2023-05-10T07:17:54;3.40;;;1.08;;
35530;SDS011;21637;53.352;-6.356;2023-05-10T07:20:20;5.30;;;1.17;;
35530;SDS011;21637;53.352;-6.356;2023-05-10T07:22:46;3.22;;;1.17;;
35530;SDS011;21637;53.352;-6.356;2023-05-10T07:25:11;2.70;;;0.70;;
35530;SDS011;21637;53.352;-6.356;2023-05-10T07:27:37;6.00;;;0.80;;
35530;SDS011;21637;53.352;-6.356;2023-05-10T07:30:03;4.68;;;1.13;;
35530;SDS011;21637;53.352;-6.356;2023-05-10T07:32:29;1.85;;;0.80;;
35530;SDS011;21637;53.352;-6.356;2023-05-10T07:34:55;2.08;;;0.68;;
35530;SDS011;21637;53.352;-6.356;2023-05-10T07:37:21;2.28;;;0.85;;
35530;SDS011;21637;53.352;-6.356;2023-05-10T07:39:46;2.78;;;0.70;;
35530;SDS011;21637;53.352;-6.356;2023-05-10T07:42:12;5.07;;;0.88;;
35530;SDS011;21637;53.352;-6.356;2023-05-10T07:44:38;2.78;;;0.75;;
35530;SDS011;21637;53.352;-6.356;2023-05-10T07:47:04;2.65;;;0.50;;
35530;SDS011;21637;53.352;-6.356;2023-05-10T07:49:29;2.55;;;0.63;;
35530;SDS011;21637;53.352;-6.356;2023-05-10T07:51:55;3.85;;;0.82;;
35530;SDS011;21637;53.352;-6.356;2023-05-10T07:54:21;2.30;;;0.45;;
35530;SDS011;21637;53.352;-6.356;2023-05-10T07:56:46;5.20;;;0.80;;
35530;SDS011;21637;53.352;-6.356;2023-05-10T07:59:16;2.22;;;0.73;;
35530;SDS011;21637;53.352;-6.356;2023-05-10T08:01:42;1.67;;;0.50;;
35530;SDS011;21637;53.352;-6.356;2023-05-10T08:04:08;4.75;;;0.90;;
35530;SDS011;21637;53.352;-6.356;2023-05-10T08:06:34;4.25;;;0.93;;
35530;SDS011;21637;53.352;-6.356;2023-05-10T08:09:00;2.53;;;0.80;;
35530;SDS011;21637;53.352;-6.356;2023-05-10T08:11:26;2.97;;;0.90;;
35530;SDS011;21637;53.352;-6.356;2023-05-10T08:13:54;3.72;;;0.60;;
35530;SDS011;21637;53.352;-6.356;2023-05-10T08:16:20;4.25;;;0.90;;
35530;SDS011;21637;53.352;-6.356;2023-05-10T08:18:46;3.35;;;0.70;;
35530;SDS011;21637;53.352;-6.356;2023-05-10T08:21:12;4.32;;;1.02;;
35530;SDS011;21637;53.352;-6.356;2023-05-10T08:23:39;3.55;;;0.73;;
35530;SDS011;21637;53.352;-6.356;2023-05-10T08:26:05;4.10;;;0.70;;
35530;SDS011;21637;53.352;-6.356;2023-05-10T08:28:31;3.45;;;0.80;;
35530;SDS011;21637;53.352;-6.356;2023-05-10T08:30:57;3.53;;;1.15;;
35530;SDS011;21637;53.352;-6.356;2023-05-10T08:33:22;3.00;;;0.70;;
35530;SDS011;21637;53.352;-6.356;2023-05-10T08:35:48;2.33;;;0.93;;
35530;SDS011;21637;53.352;-6.356;2023-05-10T08:38:14;4.60;;;0.73;;
35530;SDS011;21637;53.352;-6.356;2023-05-10T08:40:41;2.88;;;0.60;;
35530;SDS011;21637;53.352;-6.356;2023-05-10T08:43:09;4.57;;;0.90;;
35530;SDS011;21637;53.352;-6.356;2023-05-10T08:45:40;2.17;;;0.70;;
35530;SDS011;21637;53.352;-6.356;2023-05-10T08:48:08;3.53;;;0.80;;
35530;SDS011;21637;53.352;-6.356;2023-05-10T08:50:39;2.97;;;1.00;;
35530;SDS011;21637;53.352;-6.356;2023-05-10T08:53:12;6.80;;;1.30;;
35530;SDS011;21637;53.352;-6.356;2023-05-10T08:55:38;1.55;;;0.80;;
35530;SDS011;21637;53.352;-6.356;2023-05-10T08:58:07;2.05;;;0.70;;
35530;SDS011;21637;53.352;-6.356;2023-05-10T09:00:34;6.38;;;0.80;;
35530;SDS011;21637;53.352;-6.356;2023-05-10T09:03:00;3.63;;;0.80;;
35530;SDS011;21637;53.352;-6.356;2023-05-10T09:05:27;3.22;;;0.88;;
35530;SDS011;21637;53.352;-6.356;2023-05-10T09:07:53;3.70;;;0.90;;
35530;SDS011;21637;53.352;-6.356;2023-05-10T09:10:19;2.95;;;1.05;;
35530;SDS011;21637;53.352;-6.356;2023-05-10T09:12:45;2.22;;;0.50;;
35530;SDS011;21637;53.352;-6.356;2023-05-10T09:15:14;1.65;;;0.77;;
35530;SDS011;21637;53.352;-6.356;2023-05-10T09:17:40;2.00;;;0.55;;
35530;SDS011;21637;53.352;-6.356;2023-05-10T09:20:07;2.58;;;0.80;;
35530;SDS011;21637;53.352;-6.356;2023-05-10T09:22:34;1.13;;;0.57;;
35530;SDS011;21637;53.352;-6.356;2023-05-10T09:25:03;2.78;;;0.55;;
35530;SDS011;21637;53.352;-6.356;2023-05-10T09:27:34;2.28;;;0.80;;
35530;SDS011;21637;53.352;-6.356;2023-05-10T09:30:01;1.85;;;0.68;;
35530;SDS011;21637;53.352;-6.356;2023-05-10T09:32:40;0.82;;;0.40;;
35530;SDS011;21637;53.352;-6.356;2023-05-10T09:35:10;1.58;;;0.65;;
35530;SDS011;21637;53.352;-6.356;2023-05-10T09:37:41;1.20;;;0.35;;
35530;SDS011;21637;53.352;-6.356;2023-05-10T09:40:11;3.78;;;0.50;;
35530;SDS011;21637;53.352;-6.356;2023-05-10T09:42:42;0.95;;;0.50;;
35530;SDS011;21637;53.352;-6.356;2023-05-10T09:45:15;2.78;;;0.60;;
35530;SDS011;21637;53.352;-6.356;2023-05-10T09:47:41;2.25;;;0.70;;
35530;SDS011;21637;53.352;-6.356;2023-05-10T09:50:07;2.75;;;0.75;;
35530;SDS011;21637;53.352;-6.356;2023-05-10T09:55:43;1.88;;;0.70;;
35530;SDS011;21637;53.352;-6.356;2023-05-10T09:58:11;3.22;;;1.25;;
35530;SDS011;21637;53.352;-6.356;2023-05-10T10:00:47;2.70;;;0.90;;
35530;SDS011;21637;53.352;-6.356;2023-05-10T10:03:18;3.05;;;0.52;;
35530;SDS011;21637;53.352;-6.356;2023-05-10T10:05:44;1.45;;;0.50;;
35530;SDS011;21637;53.352;-6.356;2023-05-10T10:08:12;2.35;;;0.52;;
35530;SDS011;21637;53.352;-6.356;2023-05-10T10:10:39;1.75;;;0.60;;
35530;SDS011;21637;53.352;-6.356;2023-05-10T10:13:05;1.08;;;0.52;;
35530;SDS011;21637;53.352;-6.356;2023-05-10T10:15:32;1.33;;;0.43;;
35530;SDS011;21637;53.352;-6.356;2023-05-10T10:17:58;2.28;;;0.50;;
35530;SDS011;21637;53.352;-6.356;2023-05-10T10:20:25;2.20;;;0.90;;
35530;SDS011;21637;53.352;-6.356;2023-05-10T10:22:52;3.63;;;1.23;;
35530;SDS011;21637;53.352;-6.356;2023-05-10T10:25:18;4.97;;;0.98;;
35530;SDS011;21637;53.352;-6.356;2023-05-10T10:35:35;3.55;;;0.60;;
35530;SDS011;21637;53.352;-6.356;2023-05-10T10:38:01;1.70;;;0.90;;
35530;SDS011;21637;53.352;-6.356;2023-05-10T10:40:31;1.83;;;0.60;;
35530;SDS011;21637;53.352;-6.356;2023-05-10T10:42:59;2.28;;;0.60;;
35530;SDS011;21637;53.352;-6.356;2023-05-10T10:48:47;2.38;;;0.80;;
35530;SDS011;21637;53.352;-6.356;2023-05-10T10:51:14;3.85;;;0.70;;
35530;SDS011;21637;53.352;-6.356;2023-05-10T10:53:40;2.67;;;0.50;;
35530;SDS011;21637;53.352;-6.356;2023-05-10T10:56:07;2.67;;;0.43;;
35530;SDS011;21637;53.352;-6.356;2023-05-10T10:58:35;0.85;;;0.45;;
35530;SDS011;21637;53.352;-6.356;2023-05-10T11:03:41;3.08;;;0.55;;
35530;SDS011;21637;53.352;-6.356;2023-05-10T11:06:29;3.42;;;0.60;;
35530;SDS011;21637;53.352;-6.356;2023-05-10T11:08:59;1.13;;;0.35;;
35530;SDS011;21637;53.352;-6.356;2023-05-10T11:11:53;1.75;;;0.50;;
35530;SDS011;21637;53.352;-6.356;2023-05-10T11:14:23;1.35;;;0.55;;
35530;SDS011;21637;53.352;-6.356;2023-05-10T11:16:50;1.95;;;0.50;;
35530;SDS011;21637;53.352;-6.356;2023-05-10T11:19:16;1.25;;;0.55;;
35530;SDS011;21637;53.352;-6.356;2023-05-10T11:21:47;1.60;;;0.55;;
35530;SDS011;21637;53.352;-6.356;2023-05-10T11:24:20;3.42;;;0.82;;
35530;SDS011;21637;53.352;-6.356;2023-05-10T11:26:49;2.35;;;0.43;;
35530;SDS011;21637;53.352;-6.356;2023-05-10T11:29:18;2.30;;;0.60;;
35530;SDS011;21637;53.352;-6.356;2023-05-10T11:31:45;1.92;;;0.70;;
35530;SDS011;21637;53.352;-6.356;2023-05-10T11:34:11;1.42;;;0.55;;
35530;SDS011;21637;53.352;-6.356;2023-05-10T11:36:50;1.90;;;0.52;;
35530;SDS011;21637;53.352;-6.356;2023-05-10T11:39:18;2.28;;;0.60;;
35530;SDS011;21637;53.352;-6.356;2023-05-10T11:41:46;1.45;;;0.50;;
35530;SDS011;21637;53.352;-6.356;2023-05-10T11:44:13;2.05;;;0.68;;
35530;SDS011;21637;53.352;-6.356;2023-05-10T11:46:39;0.98;;;0.57;;
35530;SDS011;21637;53.352;-6.356;2023-05-10T11:49:06;1.90;;;0.55;;
35530;SDS011;21637;53.352;-6.356;2023-05-10T11:51:33;2.95;;;0.70;;
35530;SDS011;21637;53.352;-6.356;2023-05-10T11:54:07;2.15;;;0.50;;
35530;SDS011;21637;53.352;-6.356;2023-05-10T11:56:34;3.17;;;0.50;;
35530;SDS011;21637;53.352;-6.356;2023-05-10T11:59:01;1.83;;;0.43;;
35530;SDS011;21637;53.352;-6.356;2023-05-10T12:01:27;2.05;;;0.60;;
35530;SDS011;21637;53.352;-6.356;2023-05-10T12:03:54;1.33;;;0.52;;
35530;SDS011;21637;53.352;-6.356;2023-05-10T12:06:26;1.85;;;0.40;;
35530;SDS011;21637;53.352;-6.356;2023-05-10T12:08:53;2.40;;;0.50;;
35530;SDS011;21637;53.352;-6.356;2023-05-10T12:11:19;1.35;;;0.60;;
35530;SDS011;21637;53.352;-6.356;2023-05-10T12:13:49;2.13;;;0.63;;
35530;SDS011;21637;53.352;-6.356;2023-05-10T12:16:19;2.65;;;0.60;;
35530;SDS011;21637;53.352;-6.356;2023-05-10T12:18:49;2.42;;;0.60;;
35530;SDS011;21637;53.352;-6.356;2023-05-10T12:21:21;3.72;;;0.80;;
35530;SDS011;21637;53.352;-6.356;2023-05-10T12:23:50;1.60;;;0.60;;
35530;SDS011;21637;53.352;-6.356;2023-05-10T12:26:17;3.60;;;0.70;;
35530;SDS011;21637;53.352;-6.356;2023-05-10T12:28:46;1.13;;;0.52;;
35530;SDS011;21637;53.352;-6.356;2023-05-10T12:31:12;4.10;;;0.73;;
35530;SDS011;21637;53.352;-6.356;2023-05-10T12:33:38;3.15;;;0.70;;
35530;SDS011;21637;53.352;-6.356;2023-05-10T12:36:09;3.00;;;0.88;;
35530;SDS011;21637;53.352;-6.356;2023-05-10T12:38:36;5.60;;;0.77;;
35530;SDS011;21637;53.352;-6.356;2023-05-10T12:41:17;3.47;;;0.70;;
35530;SDS011;21637;53.352;-6.356;2023-05-10T12:43:43;0.88;;;0.70;;
35530;SDS011;21637;53.352;-6.356;2023-05-10T12:48:37;3.50;;;0.88;;
35530;SDS011;21637;53.352;-6.356;2023-05-10T12:51:04;1.90;;;0.98;;
35530;SDS011;21637;53.352;-6.356;2023-05-10T12:53:30;1.80;;;0.70;;
35530;SDS011;21637;53.352;-6.356;2023-05-10T12:55:56;0.70;;;0.70;;
35530;SDS011;21637;53.352;-6.356;2023-05-10T12:58:22;1.88;;;0.70;;
35530;SDS011;21637;53.352;-6.356;2023-05-10T13:00:48;2.30;;;0.60;;
35530;SDS011;21637;53.352;-6.356;2023-05-10T13:03:14;2.30;;;0.70;;
35530;SDS011;21637;53.352;-6.356;2023-05-10T13:05:40;2.28;;;0.63;;
35530;SDS011;21637;53.352;-6.356;2023-05-10T13:08:06;3.13;;;0.80;;
35530;SDS011;21637;53.352;-6.356;2023-05-10T13:10:32;2.90;;;0.52;;
35530;SDS011;21637;53.352;-6.356;2023-05-10T13:12:58;2.08;;;0.70;;
35530;SDS011;21637;53.352;-6.356;2023-05-10T13:15:24;1.02;;;0.60;;
35530;SDS011;21637;53.352;-6.356;2023-05-10T13:17:50;1.33;;;0.50;;
35530;SDS011;21637;53.352;-6.356;2023-05-10T13:20:16;1.85;;;0.82;;
35530;SDS011;21637;53.352;-6.356;2023-05-10T13:22:43;2.60;;;0.40;;
35530;SDS011;21637;53.352;-6.356;2023-05-10T13:25:09;1.42;;;0.65;;
35530;SDS011;21637;53.352;-6.356;2023-05-10T13:27:36;1.52;;;0.75;;
35530;SDS011;21637;53.352;-6.356;2023-05-10T13:30:03;4.18;;;0.88;;
35530;SDS011;21637;53.352;-6.356;2023-05-10T13:32:29;1.63;;;0.63;;
35530;SDS011;21637;53.352;-6.356;2023-05-10T13:34:55;4.13;;;0.63;;
35530;SDS011;21637;53.352;-6.356;2023-05-10T13:37:21;2.13;;;0.60;;
35530;SDS011;21637;53.352;-6.356;2023-05-10T13:39:47;3.20;;;0.65;;
35530;SDS011;21637;53.352;-6.356;2023-05-10T13:42:13;1.42;;;0.70;;
35530;SDS011;21637;53.352;-6.356;2023-05-10T13:44:39;1.38;;;0.60;;
35530;SDS011;21637;53.352;-6.356;2023-05-10T13:47:05;0.68;;;0.57;;
35530;SDS011;21637;53.352;-6.356;2023-05-10T13:49:31;1.80;;;0.70;;
35530;SDS011;21637;53.352;-6.356;2023-05-10T13:51:57;1.50;;;0.40;;
35530;SDS011;21637;53.352;-6.356;2023-05-10T13:54:23;0.93;;;0.50;;
35530;SDS011;21637;53.352;-6.356;2023-05-10T13:56:49;3.53;;;0.60;;
35530;SDS011;21637;53.352;-6.356;2023-05-10T13:59:15;2.35;;;0.82;;
35530;SDS011;21637;53.352;-6.356;2023-05-10T14:01:41;2.17;;;0.77;;
35530;SDS011;21637;53.352;-6.356;2023-05-10T14:04:07;5.18;;;0.90;;
35530;SDS011;21637;53.352;-6.356;2023-05-10T14:06:35;2.80;;;0.73;;
35530;SDS011;21637;53.352;-6.356;2023-05-10T14:09:02;2.55;;;0.65;;
35530;SDS011;21637;53.352;-6.356;2023-05-10T14:11:28;2.85;;;0.60;;
35530;SDS011;21637;53.352;-6.356;2023-05-10T14:13:54;2.25;;;0.60;;
35530;SDS011;21637;53.352;-6.356;2023-05-10T14:16:19;3.53;;;0.57;;
35530;SDS011;21637;53.352;-6.356;2023-05-10T14:18:46;3.55;;;0.80;;
35530;SDS011;21637;53.352;-6.356;2023-05-10T14:21:11;2.17;;;0.70;;
35530;SDS011;21637;53.352;-6.356;2023-05-10T14:23:37;2.92;;;0.90;;
35530;SDS011;21637;53.352;-6.356;2023-05-10T14:26:03;3.33;;;0.88;;
35530;SDS011;21637;53.352;-6.356;2023-05-10T14:28:29;1.45;;;0.75;;
35530;SDS011;21637;53.352;-6.356;2023-05-10T14:30:55;2.22;;;0.70;;
35530;SDS011;21637;53.352;-6.356;2023-05-10T14:33:21;4.30;;;1.08;;
35530;SDS011;21637;53.352;-6.356;2023-05-10T14:35:47;4.88;;;0.93;;
35530;SDS011;21637;53.352;-6.356;2023-05-10T14:38:14;2.15;;;0.80;;
35530;SDS011;21637;53.352;-6.356;2023-05-10T14:40:40;3.75;;;0.93;;
35530;SDS011;21637;53.352;-6.356;2023-05-10T14:43:05;2.78;;;0.80;;
35530;SDS011;21637;53.352;-6.356;2023-05-10T14:45:31;2.03;;;0.80;;
35530;SDS011;21637;53.352;-6.356;2023-05-10T14:47:57;3.53;;;0.80;;
35530;SDS011;21637;53.352;-6.356;2023-05-10T14:50:24;1.73;;;0.68;;
35530;SDS011;21637;53.352;-6.356;2023-05-10T14:52:49;2.67;;;0.70;;
35530;SDS011;21637;53.352;-6.356;2023-05-10T14:55:15;2.75;;;1.00;;
35530;SDS011;21637;53.352;-6.356;2023-05-10T14:57:41;2.63;;;0.80;;
35530;SDS011;21637;53.352;-6.356;2023-05-10T15:00:07;4.57;;;0.80;;
35530;SDS011;21637;53.352;-6.356;2023-05-10T15:02:34;2.08;;;0.85;;
35530;SDS011;21637;53.352;-6.356;2023-05-10T15:04:59;1.35;;;0.80;;
35530;SDS011;21637;53.352;-6.356;2023-05-10T15:07:25;1.15;;;0.60;;
35530;SDS011;21637;53.352;-6.356;2023-05-10T15:09:51;3.03;;;0.60;;
35530;SDS011;21637;53.352;-6.356;2023-05-10T15:12:17;3.13;;;1.10;;